KSIY/SIY METAR and TAF weather

Enter ICAO airport designator
Station Type Date Time Source
KSIY METAR 2020/01/27 13:53 UTC NOAA

KSIY 271353Z AUTO 13003KT 10SM -RA OVC038 04/02 A3027 RMK AO2 RAB22 SLP266 P0001 T00440022


Station Type Date Time Source
KSIY Decoded METAR 2020/01/27 13:53 UTC NOAA

MONTAGUE SISKIYOU COUNTY, CA, United States (KSIY) 41-46N 122-28W
Jan 27, 2020 - 08:53 AM EST / 2020.01.27 1353 UTC
Wind: from the SE (130 degrees) at 3 MPH (3 KT):0
Visibility: 10 mile(s):0
Sky conditions: overcast
Weather: light rain
Precipitation last hour: 0.01 inches
Temperature: 39.9 F (4.4 C)
Dew Point: 36.0 F (2.2 C)
Relative Humidity: 85%
Pressure (altimeter): 30.27 in. Hg (1025 hPa)
ob: KSIY 271353Z AUTO 13003KT 10SM -RA OVC038 04/02 A3027 RMK AO2 RAB22 SLP266 P0001 T00440022
cycle: 14

Station Type Date Time Source
KSIY TAF UTC NOAA

Error!

Example: see airport list